sensor_id;sensor_type;location;lat;lon;timestamp;pressure;altitude;pressure_sealevel;temperature
82780;BMP280;72511;45.120;20.720;2024-03-23T01:01:48;100248.53;;;8.60
82780;BMP280;72511;45.120;20.720;2024-03-23T01:11:49;100268.00;;;8.74
82780;BMP280;72511;45.120;20.720;2024-03-23T01:21:51;100268.19;;;8.60
82780;BMP280;72511;45.120;20.720;2024-03-23T01:31:52;100264.41;;;8.54
82780;BMP280;72511;45.120;20.720;2024-03-23T01:41:54;100250.78;;;8.35
82780;BMP280;72511;45.120;20.720;2024-03-23T01:51:55;100233.28;;;8.16
82780;BMP280;72511;45.120;20.720;2024-03-23T02:01:56;100245.22;;;8.19
82780;BMP280;72511;45.120;20.720;2024-03-23T02:11:58;100244.59;;;8.04
82780;BMP280;72511;45.120;20.720;2024-03-23T02:22:00;100216.03;;;7.77
82780;BMP280;72511;45.120;20.720;2024-03-23T02:32:01;100218.69;;;7.80
82780;BMP280;72511;45.120;20.720;2024-03-23T02:42:03;100211.81;;;7.76
82780;BMP280;72511;45.120;20.720;2024-03-23T02:52:04;100201.84;;;7.69
82780;BMP280;72511;45.120;20.720;2024-03-23T03:02:06;100189.25;;;7.63
82780;BMP280;72511;45.120;20.720;2024-03-23T03:12:08;100179.09;;;7.40
82780;BMP280;72511;45.120;20.720;2024-03-23T03:22:09;100184.47;;;7.37
82780;BMP280;72511;45.120;20.720;2024-03-23T03:32:10;100179.59;;;7.25
82780;BMP280;72511;45.120;20.720;2024-03-23T03:42:12;100149.81;;;7.01
82780;BMP280;72511;45.120;20.720;2024-03-23T03:52:14;100168.22;;;7.06
82780;BMP280;72511;45.120;20.720;2024-03-23T04:02:15;100154.84;;;6.96
82780;BMP280;72511;45.120;20.720;2024-03-23T04:12:16;100171.00;;;6.92
82780;BMP280;72511;45.120;20.720;2024-03-23T04:22:18;100151.59;;;6.67
82780;BMP280;72511;45.120;20.720;2024-03-23T04:32:19;100176.59;;;6.64
82780;BMP280;72511;45.120;20.720;2024-03-23T04:42:20;100172.41;;;6.56
82780;BMP280;72511;45.120;20.720;2024-03-23T04:52:22;100168.94;;;6.56
82780;BMP280;72511;45.120;20.720;2024-03-23T05:02:23;100161.47;;;6.84
82780;BMP280;72511;45.120;20.720;2024-03-23T05:12:26;100172.88;;;7.80
82780;BMP280;72511;45.120;20.720;2024-03-23T05:22:28;100161.34;;;7.80
82780;BMP280;72511;45.120;20.720;2024-03-23T05:32:29;100148.75;;;8.60
82780;BMP280;72511;45.120;20.720;2024-03-23T05:42:30;100169.34;;;10.52
82780;BMP280;72511;45.120;20.720;2024-03-23T05:52:32;100148.84;;;12.22
82780;BMP280;72511;45.120;20.720;2024-03-23T06:12:35;100130.56;;;14.92
82780;BMP280;72511;45.120;20.720;2024-03-23T06:22:36;100134.81;;;16.26
82780;BMP280;72511;45.120;20.720;2024-03-23T06:32:38;100122.84;;;17.14
82780;BMP280;72511;45.120;20.720;2024-03-23T06:42:39;100132.47;;;18.27
82780;BMP280;72511;45.120;20.720;2024-03-23T06:52:40;100119.72;;;18.64
82780;BMP280;72511;45.120;20.720;2024-03-23T07:02:42;100127.97;;;20.05
82780;BMP280;72511;45.120;20.720;2024-03-23T07:12:45;100115.19;;;20.99
82780;BMP280;72511;45.120;20.720;2024-03-23T07:22:46;100107.78;;;21.83
82780;BMP280;72511;45.120;20.720;2024-03-23T07:32:48;100105.00;;;22.40
82780;BMP280;72511;45.120;20.720;2024-03-23T07:42:49;100078.28;;;23.37
82780;BMP280;72511;45.120;20.720;2024-03-23T07:52:51;100083.06;;;23.97
82780;BMP280;72511;45.120;20.720;2024-03-23T08:02:52;100057.41;;;23.41
82780;BMP280;72511;45.120;20.720;2024-03-23T08:12:53;100063.56;;;24.84
82780;BMP280;72511;45.120;20.720;2024-03-23T08:22:56;100065.72;;;25.17
82780;BMP280;72511;45.120;20.720;2024-03-23T08:32:57;100050.56;;;25.90
82780;BMP280;72511;45.120;20.720;2024-03-23T08:43:00;100034.09;;;25.58
82780;BMP280;72511;45.120;20.720;2024-03-23T08:53:01;100026.56;;;25.59
82780;BMP280;72511;45.120;20.720;2024-03-23T09:03:03;100012.56;;;25.98
82780;BMP280;72511;45.120;20.720;2024-03-23T09:13:05;99995.66;;;23.75
82780;BMP280;72511;45.120;20.720;2024-03-23T09:23:07;99986.84;;;23.22
82780;BMP280;72511;45.120;20.720;2024-03-23T09:33:10;99965.03;;;22.76
82780;BMP280;72511;45.120;20.720;2024-03-23T09:43:11;99941.22;;;23.39
82780;BMP280;72511;45.120;20.720;2024-03-23T09:53:14;99943.88;;;23.08
82780;BMP280;72511;45.120;20.720;2024-03-23T10:03:15;99919.03;;;23.94
82780;BMP280;72511;45.120;20.720;2024-03-23T10:13:27;99908.69;;;24.65
82780;BMP280;72511;45.120;20.720;2024-03-23T10:23:34;99870.50;;;24.25
82780;BMP280;72511;45.120;20.720;2024-03-23T10:33:35;99871.25;;;24.77
82780;BMP280;72511;45.120;20.720;2024-03-23T10:43:37;99845.94;;;25.07
82780;BMP280;72511;45.120;20.720;2024-03-23T10:53:39;99826.38;;;25.25
82780;BMP280;72511;45.120;20.720;2024-03-23T11:03:51;99802.53;;;25.22
82780;BMP280;72511;45.120;20.720;2024-03-23T11:13:54;99784.16;;;25.32
82780;BMP280;72511;45.120;20.720;2024-03-23T11:24:13;99752.16;;;25.72
82780;BMP280;72511;45.120;20.720;2024-03-23T11:34:21;99717.22;;;25.00
82780;BMP280;72511;45.120;20.720;2024-03-23T11:44:25;99724.38;;;24.96
82780;BMP280;72511;45.120;20.720;2024-03-23T11:54:26;99690.22;;;25.34
82780;BMP280;72511;45.120;20.720;2024-03-23T12:04:28;99673.75;;;26.65
82780;BMP280;72511;45.120;20.720;2024-03-23T12:14:30;99655.13;;;26.88
82780;BMP280;72511;45.120;20.720;2024-03-23T12:24:34;99618.25;;;26.65
82780;BMP280;72511;45.120;20.720;2024-03-23T12:34:36;99600.13;;;27.08
82780;BMP280;72511;45.120;20.720;2024-03-23T12:44:37;99589.22;;;26.51
82780;BMP280;72511;45.120;20.720;2024-03-23T12:54:38;99572.38;;;26.19
82780;BMP280;72511;45.120;20.720;2024-03-23T13:04:40;99548.72;;;26.55
82780;BMP280;72511;45.120;20.720;2024-03-23T13:14:41;99544.25;;;26.15
82780;BMP280;72511;45.120;20.720;2024-03-23T13:24:43;99528.88;;;25.99
82780;BMP280;72511;45.120;20.720;2024-03-23T13:34:44;99527.41;;;25.98
82780;BMP280;72511;45.120;20.720;2024-03-23T13:44:46;99513.19;;;26.16
82780;BMP280;72511;45.120;20.720;2024-03-23T13:54:47;99488.31;;;25.51
82780;BMP280;72511;45.120;20.720;2024-03-23T14:04:48;99480.72;;;25.09
82780;BMP280;72511;45.120;20.720;2024-03-23T14:14:50;99471.44;;;25.34
82780;BMP280;72511;45.120;20.720;2024-03-23T14:24:52;99465.00;;;24.20
82780;BMP280;72511;45.120;20.720;2024-03-23T14:34:54;99451.88;;;24.20
82780;BMP280;72511;45.120;20.720;2024-03-23T14:44:55;99438.28;;;24.22
82780;BMP280;72511;45.120;20.720;2024-03-23T14:54:57;99425.97;;;24.03
82780;BMP280;72511;45.120;20.720;2024-03-23T15:04:58;99409.94;;;23.35
82780;BMP280;72511;45.120;20.720;2024-03-23T15:15:00;99399.34;;;23.26
82780;BMP280;72511;45.120;20.720;2024-03-23T15:25:01;99395.25;;;22.80
82780;BMP280;72511;45.120;20.720;2024-03-23T15:35:04;99374.16;;;22.57
82780;BMP280;72511;45.120;20.720;2024-03-23T15:45:09;99360.72;;;22.09
82780;BMP280;72511;45.120;20.720;2024-03-23T15:55:10;99361.97;;;21.95
82780;BMP280;72511;45.120;20.720;2024-03-23T16:05:12;99346.31;;;21.71
82780;BMP280;72511;45.120;20.720;2024-03-23T16:15:13;99334.06;;;21.35
82780;BMP280;72511;45.120;20.720;2024-03-23T16:25:14;99311.63;;;20.71
82780;BMP280;72511;45.120;20.720;2024-03-23T16:35:16;99328.28;;;20.54
82780;BMP280;72511;45.120;20.720;2024-03-23T16:45:17;99313.47;;;20.09
82780;BMP280;72511;45.120;20.720;2024-03-23T16:55:19;99321.50;;;19.72
82780;BMP280;72511;45.120;20.720;2024-03-23T17:05:20;99323.19;;;19.40
82780;BMP280;72511;45.120;20.720;2024-03-23T17:15:23;99313.84;;;19.19
82780;BMP280;72511;45.120;20.720;2024-03-23T17:25:25;99306.53;;;18.87
82780;BMP280;72511;45.120;20.720;2024-03-23T17:35:27;99326.47;;;18.82
82780;BMP280;72511;45.120;20.720;2024-03-23T17:45:29;99335.44;;;18.71
82780;BMP280;72511;45.120;20.720;2024-03-23T17:55:30;99316.31;;;18.44
82780;BMP280;72511;45.120;20.720;2024-03-23T18:05:33;99342.97;;;18.33
82780;BMP280;72511;45.120;20.720;2024-03-23T18:15:35;99336.47;;;18.24
82780;BMP280;72511;45.120;20.720;2024-03-23T18:25:36;99344.47;;;18.12
82780;BMP280;72511;45.120;20.720;2024-03-23T18:35:38;99343.19;;;18.02
82780;BMP280;72511;45.120;20.720;2024-03-23T18:45:49;99348.19;;;17.87
82780;BMP280;72511;45.120;20.720;2024-03-23T18:55:55;99323.00;;;17.66
82780;BMP280;72511;45.120;20.720;2024-03-23T19:05:58;99340.41;;;17.69
82780;BMP280;72511;45.120;20.720;2024-03-23T19:16:01;99339.16;;;17.64
82780;BMP280;72511;45.120;20.720;2024-03-23T19:26:02;99324.28;;;17.82
82780;BMP280;72511;45.120;20.720;2024-03-23T19:36:04;99321.53;;;17.76
82780;BMP280;72511;45.120;20.720;2024-03-23T19:46:06;99314.06;;;17.66
82780;BMP280;72511;45.120;20.720;2024-03-23T19:56:07;99321.78;;;17.67
82780;BMP280;72511;45.120;20.720;2024-03-23T20:06:12;99362.06;;;17.67
82780;BMP280;72511;45.120;20.720;2024-03-23T20:16:13;99357.59;;;17.80
82780;BMP280;72511;45.120;20.720;2024-03-23T20:26:14;99368.34;;;18.00
82780;BMP280;72511;45.120;20.720;2024-03-23T20:36:16;99341.66;;;17.68
82780;BMP280;72511;45.120;20.720;2024-03-23T20:46:20;99335.91;;;17.55
82780;BMP280;72511;45.120;20.720;2024-03-23T20:56:21;99317.41;;;17.28
82780;BMP280;72511;45.120;20.720;2024-03-23T21:06:24;99308.41;;;17.16
82780;BMP280;72511;45.120;20.720;2024-03-23T21:16:25;99294.94;;;17.02
82780;BMP280;72511;45.120;20.720;2024-03-23T21:26:27;99264.00;;;16.74
82780;BMP280;72511;45.120;20.720;2024-03-23T21:36:28;99291.22;;;16.57
82780;BMP280;72511;45.120;20.720;2024-03-23T21:46:30;99294.41;;;16.56
82780;BMP280;72511;45.120;20.720;2024-03-23T21:56:33;99291.28;;;16.32
82780;BMP280;72511;45.120;20.720;2024-03-23T22:06:34;99273.59;;;16.22
82780;BMP280;72511;45.120;20.720;2024-03-23T22:16:35;99267.13;;;16.19
82780;BMP280;72511;45.120;20.720;2024-03-23T22:26:37;99259.16;;;16.16
82780;BMP280;72511;45.120;20.720;2024-03-23T22:36:38;99278.75;;;16.14
82780;BMP280;72511;45.120;20.720;2024-03-23T22:46:42;99338.94;;;16.05
82780;BMP280;72511;45.120;20.720;2024-03-23T22:56:46;99349.47;;;15.67
82780;BMP280;72511;45.120;20.720;2024-03-23T23:06:47;99371.25;;;15.07
82780;BMP280;72511;45.120;20.720;2024-03-23T23:16:49;99384.75;;;14.52
82780;BMP280;72511;45.120;20.720;2024-03-23T23:26:50;99425.72;;;14.20
82780;BMP280;72511;45.120;20.720;2024-03-23T23:36:51;99437.53;;;13.79
82780;BMP280;72511;45.120;20.720;2024-03-23T23:46:53;99409.06;;;13.42
82780;BMP280;72511;45.120;20.720;2024-03-23T23:56:54;99456.22;;;13.21
